sensor_id;sensor_type;location;lat;lon;timestamp;P1;durP1;ratioP1;P2;durP2;ratioP2
56537;SDS011;42435;53.292;6.000;2024-02-21T00:01:47;22.67;;;3.90;;
56537;SDS011;42435;53.292;6.000;2024-02-21T00:04:21;18.83;;;4.72;;
56537;SDS011;42435;53.292;6.000;2024-02-21T00:07:04;20.13;;;4.05;;
56537;SDS011;42435;53.292;6.000;2024-02-21T00:09:37;26.38;;;6.35;;
56537;SDS011;42435;53.292;6.000;2024-02-21T00:12:20;18.38;;;4.75;;
56537;SDS011;42435;53.292;6.000;2024-02-21T00:15:03;13.80;;;3.78;;
56537;SDS011;42435;53.292;6.000;2024-02-21T00:17:32;21.25;;;4.10;;
56537;SDS011;42435;53.292;6.000;2024-02-21T00:20:12;20.38;;;4.85;;
56537;SDS011;42435;53.292;6.000;2024-02-21T00:23:17;16.92;;;4.28;;
56537;SDS011;42435;53.292;6.000;2024-02-21T00:26:07;20.35;;;3.90;;
56537;SDS011;42435;53.292;6.000;2024-02-21T00:28:52;18.13;;;4.15;;
56537;SDS011;42435;53.292;6.000;2024-02-21T00:31:23;15.90;;;4.32;;
56537;SDS011;42435;53.292;6.000;2024-02-21T00:33:50;16.63;;;3.92;;
56537;SDS011;42435;53.292;6.000;2024-02-21T00:36:31;25.35;;;4.30;;
56537;SDS011;42435;53.292;6.000;2024-02-21T00:39:04;27.50;;;4.90;;
56537;SDS011;42435;53.292;6.000;2024-02-21T00:41:34;16.73;;;4.47;;
56537;SDS011;42435;53.292;6.000;2024-02-21T00:44:13;15.75;;;4.15;;
56537;SDS011;42435;53.292;6.000;2024-02-21T00:47:04;22.92;;;4.35;;
56537;SDS011;42435;53.292;6.000;2024-02-21T00:49:35;15.75;;;5.35;;
56537;SDS011;42435;53.292;6.000;2024-02-21T00:52:07;16.75;;;4.30;;
56537;SDS011;42435;53.292;6.000;2024-02-21T00:54:38;21.13;;;4.63;;
56537;SDS011;42435;53.292;6.000;2024-02-21T00:57:23;17.13;;;4.45;;
56537;SDS011;42435;53.292;6.000;2024-02-21T00:59:55;20.10;;;4.30;;
56537;SDS011;42435;53.292;6.000;2024-02-21T01:02:42;17.90;;;4.22;;
56537;SDS011;42435;53.292;6.000;2024-02-21T01:05:28;16.98;;;4.75;;
56537;SDS011;42435;53.292;6.000;2024-02-21T01:08:17;20.95;;;4.75;;
56537;SDS011;42435;53.292;6.000;2024-02-21T01:10:48;21.23;;;7.47;;
56537;SDS011;42435;53.292;6.000;2024-02-21T01:13:23;25.30;;;5.70;;
56537;SDS011;42435;53.292;6.000;2024-02-21T01:15:53;24.08;;;6.22;;
56537;SDS011;42435;53.292;6.000;2024-02-21T01:18:27;26.40;;;5.95;;
56537;SDS011;42435;53.292;6.000;2024-02-21T01:21:03;23.42;;;6.70;;
56537;SDS011;42435;53.292;6.000;2024-02-21T01:23:36;21.27;;;5.88;;
56537;SDS011;42435;53.292;6.000;2024-02-21T01:26:17;23.25;;;5.88;;
56537;SDS011;42435;53.292;6.000;2024-02-21T01:28:44;19.23;;;6.00;;
56537;SDS011;42435;53.292;6.000;2024-02-21T01:31:26;23.80;;;6.45;;
56537;SDS011;42435;53.292;6.000;2024-02-21T01:33:55;21.15;;;6.13;;
56537;SDS011;42435;53.292;6.000;2024-02-21T01:36:23;21.98;;;5.70;;
56537;SDS011;42435;53.292;6.000;2024-02-21T01:38:55;17.70;;;5.45;;
56537;SDS011;42435;53.292;6.000;2024-02-21T01:41:29;21.73;;;5.70;;
56537;SDS011;42435;53.292;6.000;2024-02-21T01:43:58;26.90;;;6.15;;
56537;SDS011;42435;53.292;6.000;2024-02-21T01:46:24;20.80;;;6.70;;
56537;SDS011;42435;53.292;6.000;2024-02-21T01:48:59;18.63;;;5.70;;
56537;SDS011;42435;53.292;6.000;2024-02-21T01:51:33;23.20;;;5.75;;
56537;SDS011;42435;53.292;6.000;2024-02-21T01:53:59;22.55;;;6.82;;
56537;SDS011;42435;53.292;6.000;2024-02-21T01:56:28;26.45;;;6.53;;
56537;SDS011;42435;53.292;6.000;2024-02-21T01:58:59;28.30;;;7.05;;
56537;SDS011;42435;53.292;6.000;2024-02-21T02:01:29;19.88;;;6.35;;
56537;SDS011;42435;53.292;6.000;2024-02-21T02:04:04;16.17;;;4.93;;
56537;SDS011;42435;53.292;6.000;2024-02-21T02:06:32;27.02;;;6.00;;
56537;SDS011;42435;53.292;6.000;2024-02-21T02:09:04;32.60;;;9.68;;
56537;SDS011;42435;53.292;6.000;2024-02-21T02:11:31;21.38;;;5.88;;
56537;SDS011;42435;53.292;6.000;2024-02-21T02:13:57;26.80;;;6.53;;
56537;SDS011;42435;53.292;6.000;2024-02-21T02:16:31;32.58;;;6.30;;
56537;SDS011;42435;53.292;6.000;2024-02-21T02:19:01;18.02;;;6.00;;
56537;SDS011;42435;53.292;6.000;2024-02-21T02:21:34;26.48;;;6.68;;
56537;SDS011;42435;53.292;6.000;2024-02-21T02:24:17;19.92;;;6.70;;
56537;SDS011;42435;53.292;6.000;2024-02-21T02:26:57;31.52;;;6.60;;
56537;SDS011;42435;53.292;6.000;2024-02-21T02:29:28;27.48;;;6.25;;
56537;SDS011;42435;53.292;6.000;2024-02-21T02:32:01;27.92;;;6.30;;
56537;SDS011;42435;53.292;6.000;2024-02-21T02:34:27;24.85;;;5.65;;
56537;SDS011;42435;53.292;6.000;2024-02-21T02:36:56;21.55;;;5.35;;
56537;SDS011;42435;53.292;6.000;2024-02-21T02:39:25;22.23;;;6.50;;
56537;SDS011;42435;53.292;6.000;2024-02-21T02:41:51;20.42;;;5.70;;
56537;SDS011;42435;53.292;6.000;2024-02-21T02:44:28;21.42;;;5.70;;
56537;SDS011;42435;53.292;6.000;2024-02-21T02:47:19;32.72;;;6.10;;
56537;SDS011;42435;53.292;6.000;2024-02-21T02:49:50;27.73;;;5.78;;
56537;SDS011;42435;53.292;6.000;2024-02-21T02:52:17;23.02;;;5.80;;
56537;SDS011;42435;53.292;6.000;2024-02-21T02:54:46;24.98;;;6.25;;
56537;SDS011;42435;53.292;6.000;2024-02-21T02:57:20;24.27;;;5.00;;
56537;SDS011;42435;53.292;6.000;2024-02-21T02:59:54;22.30;;;5.65;;
56537;SDS011;42435;53.292;6.000;2024-02-21T03:02:31;25.33;;;5.18;;
56537;SDS011;42435;53.292;6.000;2024-02-21T03:05:18;30.08;;;5.57;;
56537;SDS011;42435;53.292;6.000;2024-02-21T03:07:48;22.30;;;6.05;;
56537;SDS011;42435;53.292;6.000;2024-02-21T03:10:30;22.98;;;5.65;;
56537;SDS011;42435;53.292;6.000;2024-02-21T03:12:59;28.45;;;5.85;;
56537;SDS011;42435;53.292;6.000;2024-02-21T03:15:25;24.70;;;6.05;;
56537;SDS011;42435;53.292;6.000;2024-02-21T03:17:55;22.10;;;5.55;;
56537;SDS011;42435;53.292;6.000;2024-02-21T03:20:32;23.67;;;6.55;;
56537;SDS011;42435;53.292;6.000;2024-02-21T03:22:58;27.10;;;6.63;;
56537;SDS011;42435;53.292;6.000;2024-02-21T03:25:30;34.20;;;6.50;;
56537;SDS011;42435;53.292;6.000;2024-02-21T03:28:21;26.42;;;6.32;;
56537;SDS011;42435;53.292;6.000;2024-02-21T03:30:53;23.35;;;6.03;;
56537;SDS011;42435;53.292;6.000;2024-02-21T03:33:23;29.17;;;6.35;;
56537;SDS011;42435;53.292;6.000;2024-02-21T03:35:55;25.10;;;5.82;;
56537;SDS011;42435;53.292;6.000;2024-02-21T03:38:28;24.50;;;6.85;;
56537;SDS011;42435;53.292;6.000;2024-02-21T03:40:56;24.38;;;6.72;;
56537;SDS011;42435;53.292;6.000;2024-02-21T03:43:26;24.33;;;6.53;;
56537;SDS011;42435;53.292;6.000;2024-02-21T03:45:54;20.65;;;5.82;;
56537;SDS011;42435;53.292;6.000;2024-02-21T03:48:29;24.35;;;7.07;;
56537;SDS011;42435;53.292;6.000;2024-02-21T03:51:03;31.60;;;6.80;;
56537;SDS011;42435;53.292;6.000;2024-02-21T03:53:35;26.88;;;6.72;;
56537;SDS011;42435;53.292;6.000;2024-02-21T03:56:01;24.55;;;6.20;;
56537;SDS011;42435;53.292;6.000;2024-02-21T03:58:30;25.80;;;6.53;;
56537;SDS011;42435;53.292;6.000;2024-02-21T04:00:59;30.17;;;6.40;;
56537;SDS011;42435;53.292;6.000;2024-02-21T04:03:35;27.27;;;6.95;;
56537;SDS011;42435;53.292;6.000;2024-02-21T04:06:18;27.15;;;6.30;;
56537;SDS011;42435;53.292;6.000;2024-02-21T04:08:47;30.38;;;6.03;;
56537;SDS011;42435;53.292;6.000;2024-02-21T04:11:20;27.92;;;6.03;;
56537;SDS011;42435;53.292;6.000;2024-02-21T04:13:49;20.92;;;5.45;;
56537;SDS011;42435;53.292;6.000;2024-02-21T04:16:25;24.20;;;6.07;;
56537;SDS011;42435;53.292;6.000;2024-02-21T04:18:55;28.15;;;6.32;;
56537;SDS011;42435;53.292;6.000;2024-02-21T04:21:27;22.02;;;5.88;;
56537;SDS011;42435;53.292;6.000;2024-02-21T04:23:57;23.73;;;5.95;;
56537;SDS011;42435;53.292;6.000;2024-02-21T04:26:29;22.27;;;5.78;;
56537;SDS011;42435;53.292;6.000;2024-02-21T04:29:13;21.02;;;5.10;;
56537;SDS011;42435;53.292;6.000;2024-02-21T04:31:50;23.45;;;6.45;;
56537;SDS011;42435;53.292;6.000;2024-02-21T04:34:21;21.42;;;5.40;;
56537;SDS011;42435;53.292;6.000;2024-02-21T04:36:56;18.48;;;5.63;;
56537;SDS011;42435;53.292;6.000;2024-02-21T04:39:27;26.55;;;5.43;;
56537;SDS011;42435;53.292;6.000;2024-02-21T04:42:09;25.17;;;5.30;;
56537;SDS011;42435;53.292;6.000;2024-02-21T04:44:40;23.73;;;5.35;;
56537;SDS011;42435;53.292;6.000;2024-02-21T04:47:12;24.25;;;5.38;;
56537;SDS011;42435;53.292;6.000;2024-02-21T04:49:48;21.70;;;5.57;;
56537;SDS011;42435;53.292;6.000;2024-02-21T04:52:20;28.98;;;5.20;;
56537;SDS011;42435;53.292;6.000;2024-02-21T04:54:47;20.50;;;5.57;;
56537;SDS011;42435;53.292;6.000;2024-02-21T04:57:18;21.38;;;5.03;;
56537;SDS011;42435;53.292;6.000;2024-02-21T04:59:44;18.23;;;5.97;;
56537;SDS011;42435;53.292;6.000;2024-02-21T05:02:18;19.05;;;4.75;;
56537;SDS011;42435;53.292;6.000;2024-02-21T05:04:48;24.00;;;6.00;;
56537;SDS011;42435;53.292;6.000;2024-02-21T05:07:19;26.77;;;5.40;;
56537;SDS011;42435;53.292;6.000;2024-02-21T05:09:54;21.45;;;6.25;;
56537;SDS011;42435;53.292;6.000;2024-02-21T05:12:30;21.38;;;5.70;;
56537;SDS011;42435;53.292;6.000;2024-02-21T05:14:57;24.90;;;5.53;;
56537;SDS011;42435;53.292;6.000;2024-02-21T05:17:32;21.70;;;5.55;;
56537;SDS011;42435;53.292;6.000;2024-02-21T05:20:02;22.00;;;5.45;;
56537;SDS011;42435;53.292;6.000;2024-02-21T05:22:29;27.52;;;5.57;;
56537;SDS011;42435;53.292;6.000;2024-02-21T05:24:57;33.10;;;5.68;;
56537;SDS011;42435;53.292;6.000;2024-02-21T05:27:25;20.25;;;6.30;;
56537;SDS011;42435;53.292;6.000;2024-02-21T05:30:08;21.63;;;5.35;;
56537;SDS011;42435;53.292;6.000;2024-02-21T05:32:35;23.42;;;5.43;;
56537;SDS011;42435;53.292;6.000;2024-02-21T05:35:04;24.05;;;6.03;;
56537;SDS011;42435;53.292;6.000;2024-02-21T05:37:33;24.60;;;6.38;;
56537;SDS011;42435;53.292;6.000;2024-02-21T05:42:39;26.63;;;5.40;;
56537;SDS011;42435;53.292;6.000;2024-02-21T05:45:05;19.63;;;6.45;;
56537;SDS011;42435;53.292;6.000;2024-02-21T05:47:34;23.92;;;7.00;;
56537;SDS011;42435;53.292;6.000;2024-02-21T05:50:00;30.10;;;6.97;;
56537;SDS011;42435;53.292;6.000;2024-02-21T05:52:43;20.80;;;6.22;;
56537;SDS011;42435;53.292;6.000;2024-02-21T05:55:12;30.70;;;6.35;;
56537;SDS011;42435;53.292;6.000;2024-02-21T05:57:45;24.35;;;5.68;;
56537;SDS011;42435;53.292;6.000;2024-02-21T06:00:13;26.60;;;6.85;;
56537;SDS011;42435;53.292;6.000;2024-02-21T06:02:41;26.63;;;7.78;;
56537;SDS011;42435;53.292;6.000;2024-02-21T06:05:16;26.38;;;6.80;;
56537;SDS011;42435;53.292;6.000;2024-02-21T06:07:44;25.42;;;6.88;;
56537;SDS011;42435;53.292;6.000;2024-02-21T06:10:10;23.95;;;6.95;;
56537;SDS011;42435;53.292;6.000;2024-02-21T06:12:39;26.38;;;6.13;;
56537;SDS011;42435;53.292;6.000;2024-02-21T06:15:11;24.02;;;6.78;;
56537;SDS011;42435;53.292;6.000;2024-02-21T06:17:41;31.10;;;7.28;;
56537;SDS011;42435;53.292;6.000;2024-02-21T06:20:10;32.83;;;7.82;;
56537;SDS011;42435;53.292;6.000;2024-02-21T06:22:37;31.95;;;7.65;;
56537;SDS011;42435;53.292;6.000;2024-02-21T06:25:08;35.67;;;7.00;;
56537;SDS011;42435;53.292;6.000;2024-02-21T06:27:37;25.00;;;7.20;;
56537;SDS011;42435;53.292;6.000;2024-02-21T06:30:12;23.98;;;7.18;;
56537;SDS011;42435;53.292;6.000;2024-02-21T06:32:40;23.80;;;8.50;;
56537;SDS011;42435;53.292;6.000;2024-02-21T06:35:19;25.92;;;7.60;;
56537;SDS011;42435;53.292;6.000;2024-02-21T06:40:16;26.60;;;6.75;;
56537;SDS011;42435;53.292;6.000;2024-02-21T06:42:51;25.60;;;7.15;;
56537;SDS011;42435;53.292;6.000;2024-02-21T06:45:41;29.50;;;6.78;;
56537;SDS011;42435;53.292;6.000;2024-02-21T06:48:19;27.35;;;7.45;;
56537;SDS011;42435;53.292;6.000;2024-02-21T06:50:49;30.98;;;6.80;;
56537;SDS011;42435;53.292;6.000;2024-02-21T06:53:19;29.00;;;7.35;;
56537;SDS011;42435;53.292;6.000;2024-02-21T06:56:30;29.90;;;7.40;;
56537;SDS011;42435;53.292;6.000;2024-02-21T06:59:01;22.33;;;7.05;;
56537;SDS011;42435;53.292;6.000;2024-02-21T07:01:46;28.90;;;8.23;;
56537;SDS011;42435;53.292;6.000;2024-02-21T07:04:26;27.55;;;7.30;;
56537;SDS011;42435;53.292;6.000;2024-02-21T07:07:04;33.63;;;8.00;;
56537;SDS011;42435;53.292;6.000;2024-02-21T07:09:41;30.95;;;8.18;;
56537;SDS011;42435;53.292;6.000;2024-02-21T07:12:27;28.75;;;7.45;;
56537;SDS011;42435;53.292;6.000;2024-02-21T07:15:07;33.58;;;7.60;;
56537;SDS011;42435;53.292;6.000;2024-02-21T07:17:49;32.47;;;9.50;;
56537;SDS011;42435;53.292;6.000;2024-02-21T07:20:23;36.78;;;8.18;;
56537;SDS011;42435;53.292;6.000;2024-02-21T07:22:55;25.27;;;8.10;;
56537;SDS011;42435;53.292;6.000;2024-02-21T07:25:27;30.48;;;8.15;;
56537;SDS011;42435;53.292;6.000;2024-02-21T07:28:01;30.65;;;8.48;;
56537;SDS011;42435;53.292;6.000;2024-02-21T07:30:28;28.45;;;8.52;;
56537;SDS011;42435;53.292;6.000;2024-02-21T07:32:55;37.70;;;9.40;;
56537;SDS011;42435;53.292;6.000;2024-02-21T07:35:32;37.78;;;9.68;;
56537;SDS011;42435;53.292;6.000;2024-02-21T07:38:07;38.03;;;10.27;;
56537;SDS011;42435;53.292;6.000;2024-02-21T07:40:40;43.45;;;10.55;;
56537;SDS011;42435;53.292;6.000;2024-02-21T07:43:17;37.65;;;12.00;;
56537;SDS011;42435;53.292;6.000;2024-02-21T07:45:58;43.55;;;13.98;;
56537;SDS011;42435;53.292;6.000;2024-02-21T07:48:27;44.20;;;13.27;;
56537;SDS011;42435;53.292;6.000;2024-02-21T07:51:13;42.42;;;13.55;;
56537;SDS011;42435;53.292;6.000;2024-02-21T07:53:43;41.38;;;13.80;;
56537;SDS011;42435;53.292;6.000;2024-02-21T07:56:19;39.92;;;14.88;;
56537;SDS011;42435;53.292;6.000;2024-02-21T07:58:49;38.70;;;13.25;;
56537;SDS011;42435;53.292;6.000;2024-02-21T08:01:36;55.50;;;20.98;;
56537;SDS011;42435;53.292;6.000;2024-02-21T08:04:09;46.55;;;16.38;;
56537;SDS011;42435;53.292;6.000;2024-02-21T08:06:52;51.60;;;17.52;;
56537;SDS011;42435;53.292;6.000;2024-02-21T08:09:32;46.28;;;15.95;;
56537;SDS011;42435;53.292;6.000;2024-02-21T08:12:01;52.95;;;19.08;;
56537;SDS011;42435;53.292;6.000;2024-02-21T08:14:30;49.80;;;17.27;;
56537;SDS011;42435;53.292;6.000;2024-02-21T08:17:06;50.88;;;19.40;;
56537;SDS011;42435;53.292;6.000;2024-02-21T08:19:35;45.88;;;18.35;;
56537;SDS011;42435;53.292;6.000;2024-02-21T08:22:07;56.20;;;21.50;;
56537;SDS011;42435;53.292;6.000;2024-02-21T08:25:05;46.40;;;17.90;;
56537;SDS011;42435;53.292;6.000;2024-02-21T08:27:37;43.85;;;17.88;;
56537;SDS011;42435;53.292;6.000;2024-02-21T08:30:11;48.03;;;18.23;;
56537;SDS011;42435;53.292;6.000;2024-02-21T08:32:48;35.90;;;14.25;;
56537;SDS011;42435;53.292;6.000;2024-02-21T08:35:18;32.00;;;12.45;;
56537;SDS011;42435;53.292;6.000;2024-02-21T08:40:42;30.27;;;12.20;;
56537;SDS011;42435;53.292;6.000;2024-02-21T08:43:38;41.88;;;13.20;;
56537;SDS011;42435;53.292;6.000;2024-02-21T08:46:30;36.28;;;12.55;;
56537;SDS011;42435;53.292;6.000;2024-02-21T08:49:09;30.33;;;11.88;;
56537;SDS011;42435;53.292;6.000;2024-02-21T08:51:38;31.63;;;11.50;;
56537;SDS011;42435;53.292;6.000;2024-02-21T08:54:06;32.45;;;11.48;;
56537;SDS011;42435;53.292;6.000;2024-02-21T08:56:36;30.15;;;10.05;;
56537;SDS011;42435;53.292;6.000;2024-02-21T08:59:12;21.95;;;9.05;;
56537;SDS011;42435;53.292;6.000;2024-02-21T09:01:43;22.10;;;10.68;;
56537;SDS011;42435;53.292;6.000;2024-02-21T09:04:38;31.17;;;14.43;;
56537;SDS011;42435;53.292;6.000;2024-02-21T09:07:24;26.13;;;11.90;;
56537;SDS011;42435;53.292;6.000;2024-02-21T09:09:55;37.67;;;15.50;;
56537;SDS011;42435;53.292;6.000;2024-02-21T09:12:31;35.45;;;16.85;;
56537;SDS011;42435;53.292;6.000;2024-02-21T09:15:05;35.67;;;16.75;;
56537;SDS011;42435;53.292;6.000;2024-02-21T09:17:40;35.25;;;16.90;;
56537;SDS011;42435;53.292;6.000;2024-02-21T09:20:28;30.67;;;15.82;;
56537;SDS011;42435;53.292;6.000;2024-02-21T09:23:14;33.60;;;17.55;;
56537;SDS011;42435;53.292;6.000;2024-02-21T09:26:09;37.92;;;16.92;;
56537;SDS011;42435;53.292;6.000;2024-02-21T09:28:47;36.47;;;19.33;;
56537;SDS011;42435;53.292;6.000;2024-02-21T09:31:19;32.20;;;16.45;;
56537;SDS011;42435;53.292;6.000;2024-02-21T09:34:00;31.90;;;17.15;;
56537;SDS011;42435;53.292;6.000;2024-02-21T09:36:30;32.47;;;17.27;;
56537;SDS011;42435;53.292;6.000;2024-02-21T09:39:20;33.42;;;15.65;;
56537;SDS011;42435;53.292;6.000;2024-02-21T09:41:58;31.13;;;15.40;;
56537;SDS011;42435;53.292;6.000;2024-02-21T09:44:33;36.65;;;15.70;;
56537;SDS011;42435;53.292;6.000;2024-02-21T09:47:37;29.13;;;15.77;;
56537;SDS011;42435;53.292;6.000;2024-02-21T09:50:30;28.73;;;16.10;;
56537;SDS011;42435;53.292;6.000;2024-02-21T09:53:04;28.15;;;16.10;;
56537;SDS011;42435;53.292;6.000;2024-02-21T09:55:32;28.02;;;15.25;;
56537;SDS011;42435;53.292;6.000;2024-02-21T09:58:28;27.05;;;14.88;;
56537;SDS011;42435;53.292;6.000;2024-02-21T10:01:12;26.27;;;16.25;;
56537;SDS011;42435;53.292;6.000;2024-02-21T10:03:39;25.70;;;15.45;;
56537;SDS011;42435;53.292;6.000;2024-02-21T10:06:12;32.10;;;15.75;;
56537;SDS011;42435;53.292;6.000;2024-02-21T10:08:51;34.03;;;16.95;;
56537;SDS011;42435;53.292;6.000;2024-02-21T10:11:39;26.73;;;16.27;;
56537;SDS011;42435;53.292;6.000;2024-02-21T10:14:13;29.77;;;16.27;;
56537;SDS011;42435;53.292;6.000;2024-02-21T10:16:43;31.17;;;16.23;;
56537;SDS011;42435;53.292;6.000;2024-02-21T10:19:36;32.15;;;16.45;;
56537;SDS011;42435;53.292;6.000;2024-02-21T10:22:32;29.52;;;15.23;;
56537;SDS011;42435;53.292;6.000;2024-02-21T10:25:09;28.17;;;15.75;;
56537;SDS011;42435;53.292;6.000;2024-02-21T10:28:02;27.67;;;15.93;;
56537;SDS011;42435;53.292;6.000;2024-02-21T10:31:09;28.83;;;17.17;;
56537;SDS011;42435;53.292;6.000;2024-02-21T10:34:34;29.27;;;17.33;;
56537;SDS011;42435;53.292;6.000;2024-02-21T10:37:24;32.70;;;17.35;;
56537;SDS011;42435;53.292;6.000;2024-02-21T10:39:54;32.80;;;17.45;;
56537;SDS011;42435;53.292;6.000;2024-02-21T10:42:28;30.58;;;16.92;;
56537;SDS011;42435;53.292;6.000;2024-02-21T10:45:31;31.20;;;17.10;;
56537;SDS011;42435;53.292;6.000;2024-02-21T10:48:17;27.02;;;16.55;;
56537;SDS011;42435;53.292;6.000;2024-02-21T10:51:19;34.00;;;18.80;;
56537;SDS011;42435;53.292;6.000;2024-02-21T10:57:10;33.28;;;18.13;;
56537;SDS011;42435;53.292;6.000;2024-02-21T10:59:53;29.33;;;16.30;;
56537;SDS011;42435;53.292;6.000;2024-02-21T11:02:27;24.08;;;15.35;;
56537;SDS011;42435;53.292;6.000;2024-02-21T11:05:09;23.65;;;15.52;;
56537;SDS011;42435;53.292;6.000;2024-02-21T11:07:45;24.73;;;14.90;;
56537;SDS011;42435;53.292;6.000;2024-02-21T11:10:37;28.05;;;15.30;;
56537;SDS011;42435;53.292;6.000;2024-02-21T11:13:19;27.73;;;16.35;;
56537;SDS011;42435;53.292;6.000;2024-02-21T11:16:08;26.30;;;16.73;;
56537;SDS011;42435;53.292;6.000;2024-02-21T11:18:39;26.17;;;16.88;;
56537;SDS011;42435;53.292;6.000;2024-02-21T11:21:08;25.73;;;16.52;;
56537;SDS011;42435;53.292;6.000;2024-02-21T11:23:37;27.63;;;17.30;;
56537;SDS011;42435;53.292;6.000;2024-02-21T11:26:32;25.15;;;15.10;;
56537;SDS011;42435;53.292;6.000;2024-02-21T11:29:04;23.70;;;13.43;;
56537;SDS011;42435;53.292;6.000;2024-02-21T11:31:48;25.88;;;15.40;;
56537;SDS011;42435;53.292;6.000;2024-02-21T11:34:25;22.05;;;14.45;;
56537;SDS011;42435;53.292;6.000;2024-02-21T11:37:32;23.67;;;14.73;;
56537;SDS011;42435;53.292;6.000;2024-02-21T11:40:05;25.02;;;14.90;;
56537;SDS011;42435;53.292;6.000;2024-02-21T11:42:45;26.33;;;14.13;;
56537;SDS011;42435;53.292;6.000;2024-02-21T11:45:17;26.98;;;14.55;;
56537;SDS011;42435;53.292;6.000;2024-02-21T11:47:55;24.50;;;15.18;;
56537;SDS011;42435;53.292;6.000;2024-02-21T11:50:52;26.38;;;15.07;;
56537;SDS011;42435;53.292;6.000;2024-02-21T11:53:23;24.73;;;15.40;;
56537;SDS011;42435;53.292;6.000;2024-02-21T11:56:04;21.77;;;14.60;;
56537;SDS011;42435;53.292;6.000;2024-02-21T11:58:40;23.40;;;15.13;;
56537;SDS011;42435;53.292;6.000;2024-02-21T12:01:15;23.60;;;15.60;;
56537;SDS011;42435;53.292;6.000;2024-02-21T12:03:53;24.10;;;17.15;;
56537;SDS011;42435;53.292;6.000;2024-02-21T12:10:41;26.85;;;16.48;;
56537;SDS011;42435;53.292;6.000;2024-02-21T12:13:32;25.55;;;16.30;;
56537;SDS011;42435;53.292;6.000;2024-02-21T12:15:58;26.33;;;16.73;;
56537;SDS011;42435;53.292;6.000;2024-02-21T12:18:31;25.48;;;17.23;;
56537;SDS011;42435;53.292;6.000;2024-02-21T12:21:04;24.52;;;17.08;;
56537;SDS011;42435;53.292;6.000;2024-02-21T12:23:40;21.75;;;15.23;;
56537;SDS011;42435;53.292;6.000;2024-02-21T12:26:08;21.38;;;14.68;;
56537;SDS011;42435;53.292;6.000;2024-02-21T12:28:40;21.77;;;14.05;;
56537;SDS011;42435;53.292;6.000;2024-02-21T12:31:17;21.95;;;13.88;;
56537;SDS011;42435;53.292;6.000;2024-02-21T12:33:54;21.35;;;13.30;;
56537;SDS011;42435;53.292;6.000;2024-02-21T12:36:31;23.73;;;14.48;;
56537;SDS011;42435;53.292;6.000;2024-02-21T12:39:21;24.60;;;15.98;;
56537;SDS011;42435;53.292;6.000;2024-02-21T12:42:11;25.48;;;14.80;;
56537;SDS011;42435;53.292;6.000;2024-02-21T12:44:43;20.70;;;14.10;;
56537;SDS011;42435;53.292;6.000;2024-02-21T12:47:52;21.30;;;13.98;;
56537;SDS011;42435;53.292;6.000;2024-02-21T12:50:33;18.60;;;12.95;;
56537;SDS011;42435;53.292;6.000;2024-02-21T12:53:01;21.00;;;14.18;;
56537;SDS011;42435;53.292;6.000;2024-02-21T12:55:51;20.27;;;12.05;;
56537;SDS011;42435;53.292;6.000;2024-02-21T12:58:59;20.45;;;12.52;;
56537;SDS011;42435;53.292;6.000;2024-02-21T13:01:28;23.23;;;14.30;;
56537;SDS011;42435;53.292;6.000;2024-02-21T13:04:11;23.88;;;13.93;;
56537;SDS011;42435;53.292;6.000;2024-02-21T13:06:38;17.52;;;12.38;;
56537;SDS011;42435;53.292;6.000;2024-02-21T13:09:09;17.20;;;11.38;;
56537;SDS011;42435;53.292;6.000;2024-02-21T13:11:39;18.40;;;11.63;;
56537;SDS011;42435;53.292;6.000;2024-02-21T13:14:12;17.83;;;10.95;;
56537;SDS011;42435;53.292;6.000;2024-02-21T13:16:44;17.90;;;10.50;;
56537;SDS011;42435;53.292;6.000;2024-02-21T13:19:25;15.27;;;10.82;;
56537;SDS011;42435;53.292;6.000;2024-02-21T13:21:57;15.85;;;10.18;;
56537;SDS011;42435;53.292;6.000;2024-02-21T13:25:04;13.52;;;8.98;;
56537;SDS011;42435;53.292;6.000;2024-02-21T13:27:51;15.18;;;9.68;;
56537;SDS011;42435;53.292;6.000;2024-02-21T13:30:29;12.73;;;8.35;;
56537;SDS011;42435;53.292;6.000;2024-02-21T13:33:06;9.07;;;7.25;;
56537;SDS011;42435;53.292;6.000;2024-02-21T13:35:38;12.38;;;8.98;;
56537;SDS011;42435;53.292;6.000;2024-02-21T13:38:59;9.68;;;7.18;;
56537;SDS011;42435;53.292;6.000;2024-02-21T13:42:28;12.88;;;8.50;;
56537;SDS011;42435;53.292;6.000;2024-02-21T13:45:22;14.45;;;8.13;;
56537;SDS011;42435;53.292;6.000;2024-02-21T13:48:02;10.73;;;7.20;;
56537;SDS011;42435;53.292;6.000;2024-02-21T13:51:03;12.05;;;8.05;;
56537;SDS011;42435;53.292;6.000;2024-02-21T13:53:44;11.15;;;7.60;;
56537;SDS011;42435;53.292;6.000;2024-02-21T13:56:30;9.80;;;6.75;;
56537;SDS011;42435;53.292;6.000;2024-02-21T13:59:30;11.32;;;7.15;;
56537;SDS011;42435;53.292;6.000;2024-02-21T14:02:04;13.15;;;8.30;;
56537;SDS011;42435;53.292;6.000;2024-02-21T14:04:49;12.35;;;7.85;;
56537;SDS011;42435;53.292;6.000;2024-02-21T14:07:28;13.88;;;8.23;;
56537;SDS011;42435;53.292;6.000;2024-02-21T14:10:19;12.88;;;8.50;;
56537;SDS011;42435;53.292;6.000;2024-02-21T14:13:00;11.32;;;7.70;;
56537;SDS011;42435;53.292;6.000;2024-02-21T14:15:33;10.10;;;8.18;;
56537;SDS011;42435;53.292;6.000;2024-02-21T14:18:02;13.25;;;9.15;;
56537;SDS011;42435;53.292;6.000;2024-02-21T14:20:36;12.55;;;8.88;;
56537;SDS011;42435;53.292;6.000;2024-02-21T14:23:03;11.82;;;8.43;;
56537;SDS011;42435;53.292;6.000;2024-02-21T14:25:52;16.65;;;9.73;;
56537;SDS011;42435;53.292;6.000;2024-02-21T14:28:40;16.10;;;9.98;;
56537;SDS011;42435;53.292;6.000;2024-02-21T14:31:11;14.82;;;10.15;;
56537;SDS011;42435;53.292;6.000;2024-02-21T14:33:55;16.52;;;10.70;;
56537;SDS011;42435;53.292;6.000;2024-02-21T14:36:28;14.30;;;9.38;;
56537;SDS011;42435;53.292;6.000;2024-02-21T14:39:01;13.65;;;8.70;;
56537;SDS011;42435;53.292;6.000;2024-02-21T14:41:55;14.30;;;10.32;;
56537;SDS011;42435;53.292;6.000;2024-02-21T14:44:30;11.43;;;8.80;;
56537;SDS011;42435;53.292;6.000;2024-02-21T14:47:00;17.35;;;10.55;;
56537;SDS011;42435;53.292;6.000;2024-02-21T14:49:48;15.60;;;10.38;;
56537;SDS011;42435;53.292;6.000;2024-02-21T14:52:37;13.50;;;8.65;;
56537;SDS011;42435;53.292;6.000;2024-02-21T14:55:06;15.80;;;10.95;;
56537;SDS011;42435;53.292;6.000;2024-02-21T14:57:39;12.93;;;9.93;;
56537;SDS011;42435;53.292;6.000;2024-02-21T15:00:16;13.75;;;8.80;;
56537;SDS011;42435;53.292;6.000;2024-02-21T15:03:03;13.45;;;8.98;;
56537;SDS011;42435;53.292;6.000;2024-02-21T15:05:33;12.73;;;7.78;;
56537;SDS011;42435;53.292;6.000;2024-02-21T15:08:22;10.85;;;7.72;;
56537;SDS011;42435;53.292;6.000;2024-02-21T15:10:57;12.50;;;8.60;;
56537;SDS011;42435;53.292;6.000;2024-02-21T15:13:34;12.70;;;8.45;;
56537;SDS011;42435;53.292;6.000;2024-02-21T15:16:06;14.45;;;8.57;;
56537;SDS011;42435;53.292;6.000;2024-02-21T15:18:39;13.48;;;9.68;;
56537;SDS011;42435;53.292;6.000;2024-02-21T15:21:09;13.15;;;8.82;;
56537;SDS011;42435;53.292;6.000;2024-02-21T15:23:44;13.40;;;8.98;;
56537;SDS011;42435;53.292;6.000;2024-02-21T15:26:19;12.18;;;8.27;;
56537;SDS011;42435;53.292;6.000;2024-02-21T15:28:54;13.05;;;8.43;;
56537;SDS011;42435;53.292;6.000;2024-02-21T15:31:31;15.60;;;9.23;;
56537;SDS011;42435;53.292;6.000;2024-02-21T15:33:58;14.68;;;9.13;;
56537;SDS011;42435;53.292;6.000;2024-02-21T15:36:28;12.50;;;9.30;;
56537;SDS011;42435;53.292;6.000;2024-02-21T15:38:56;14.77;;;9.40;;
56537;SDS011;42435;53.292;6.000;2024-02-21T15:41:29;12.85;;;8.70;;
56537;SDS011;42435;53.292;6.000;2024-02-21T15:44:01;14.75;;;10.10;;